sensor_id;sensor_type;location;lat;lon;timestamp;pressure;altitude;pressure_sealevel;temperature;humidity
9307;BME280;4691;47.612;7.610;2023-05-20T00:01:20;98850.22;;;14.07;100.00
9307;BME280;4691;47.612;7.610;2023-05-20T00:03:45;98849.38;;;14.07;100.00
9307;BME280;4691;47.612;7.610;2023-05-20T00:06:10;98859.16;;;14.08;100.00
9307;BME280;4691;47.612;7.610;2023-05-20T00:08:39;98852.78;;;14.09;100.00
9307;BME280;4691;47.612;7.610;2023-05-20T00:11:04;98856.31;;;14.09;100.00
9307;BME280;4691;47.612;7.610;2023-05-20T00:13:30;98850.81;;;14.11;100.00
9307;BME280;4691;47.612;7.610;2023-05-20T00:16:03;98854.47;;;14.10;100.00
9307;BME280;4691;47.612;7.610;2023-05-20T00:18:31;98845.72;;;14.08;100.00
9307;BME280;4691;47.612;7.610;2023-05-20T00:20:59;98845.28;;;14.03;100.00
9307;BME280;4691;47.612;7.610;2023-05-20T00:23:24;98847.97;;;14.03;100.00
9307;BME280;4691;47.612;7.610;2023-05-20T00:25:49;98847.69;;;14.06;100.00
9307;BME280;4691;47.612;7.610;2023-05-20T00:28:22;98842.59;;;14.03;100.00
9307;BME280;4691;47.612;7.610;2023-05-20T00:30:48;98849.66;;;14.04;100.00
9307;BME280;4691;47.612;7.610;2023-05-20T00:33:13;98845.00;;;14.06;100.00
9307;BME280;4691;47.612;7.610;2023-05-20T00:35:42;98843.44;;;14.03;100.00
9307;BME280;4691;47.612;7.610;2023-05-20T00:38:13;98834.38;;;14.04;100.00
9307;BME280;4691;47.612;7.610;2023-05-20T00:40:44;98845.00;;;14.06;100.00
9307;BME280;4691;47.612;7.610;2023-05-20T00:43:09;98841.72;;;14.02;100.00
9307;BME280;4691;47.612;7.610;2023-05-20T00:45:38;98846.69;;;14.07;100.00
9307;BME280;4691;47.612;7.610;2023-05-20T00:48:07;98848.09;;;14.01;100.00
9307;BME280;4691;47.612;7.610;2023-05-20T00:50:35;98845.28;;;14.03;100.00
9307;BME280;4691;47.612;7.610;2023-05-20T00:53:03;98844.84;;;13.98;100.00
9307;BME280;4691;47.612;7.610;2023-05-20T00:55:29;98845.13;;;13.94;100.00
9307;BME280;4691;47.612;7.610;2023-05-20T00:58:02;98843.00;;;13.88;100.00
9307;BME280;4691;47.612;7.610;2023-05-20T01:00:31;98836.91;;;13.86;100.00
9307;BME280;4691;47.612;7.610;2023-05-20T01:03:07;98837.06;;;13.85;100.00
9307;BME280;4691;47.612;7.610;2023-05-20T01:05:33;98832.81;;;13.82;100.00
9307;BME280;4691;47.612;7.610;2023-05-20T01:07:58;98836.06;;;13.86;100.00
9307;BME280;4691;47.612;7.610;2023-05-20T01:10:26;98829.84;;;13.85;100.00
9307;BME280;4691;47.612;7.610;2023-05-20T01:12:56;98830.97;;;13.83;100.00
9307;BME280;4691;47.612;7.610;2023-05-20T01:15:23;98828.41;;;13.81;100.00
9307;BME280;4691;47.612;7.610;2023-05-20T01:17:57;98832.81;;;13.82;100.00
9307;BME280;4691;47.612;7.610;2023-05-20T01:20:27;98819.63;;;13.79;100.00
9307;BME280;4691;47.612;7.610;2023-05-20T01:22:56;98819.63;;;13.79;100.00
9307;BME280;4691;47.612;7.610;2023-05-20T01:25:28;98824.03;;;13.80;100.00
9307;BME280;4691;47.612;7.610;2023-05-20T01:27:56;98822.06;;;13.82;100.00
9307;BME280;4691;47.612;7.610;2023-05-20T01:30:25;98820.22;;;13.83;100.00
9307;BME280;4691;47.612;7.610;2023-05-20T01:32:57;98807.63;;;13.83;100.00
9307;BME280;4691;47.612;7.610;2023-05-20T01:35:25;98809.59;;;13.81;100.00
9307;BME280;4691;47.612;7.610;2023-05-20T01:38:06;98811.31;;;13.82;100.00
9307;BME280;4691;47.612;7.610;2023-05-20T01:40:34;98810.31;;;13.83;100.00
9307;BME280;4691;47.612;7.610;2023-05-20T01:43:04;98808.34;;;13.85;100.00
9307;BME280;4691;47.612;7.610;2023-05-20T01:45:35;98802.09;;;13.94;100.00
9307;BME280;4691;47.612;7.610;2023-05-20T01:48:02;98800.84;;;13.89;100.00
9307;BME280;4691;47.612;7.610;2023-05-20T01:50:27;98810.03;;;13.86;100.00
9307;BME280;4691;47.612;7.610;2023-05-20T01:52:53;98807.91;;;13.80;100.00
9307;BME280;4691;47.612;7.610;2023-05-20T01:55:18;98810.59;;;13.80;100.00
9307;BME280;4691;47.612;7.610;2023-05-20T01:57:49;98807.19;;;13.78;100.00
9307;BME280;4691;47.612;7.610;2023-05-20T02:00:22;98812.56;;;13.78;100.00
9307;BME280;4691;47.612;7.610;2023-05-20T02:02:48;98805.66;;;13.76;100.00
9307;BME280;4691;47.612;7.610;2023-05-20T02:05:19;98807.75;;;13.62;100.00
9307;BME280;4691;47.612;7.610;2023-05-20T02:07:44;98805.19;;;13.61;100.00
9307;BME280;4691;47.612;7.610;2023-05-20T02:10:10;98807.34;;;13.67;100.00
9307;BME280;4691;47.612;7.610;2023-05-20T02:12:38;98802.06;;;13.56;100.00
9307;BME280;4691;47.612;7.610;2023-05-20T02:15:04;98805.47;;;13.48;100.00
9307;BME280;4691;47.612;7.610;2023-05-20T02:19:38;98799.81;;;13.41;100.00
9307;BME280;4691;47.612;7.610;2023-05-20T02:22:05;98793.31;;;13.44;100.00
9307;BME280;4691;47.612;7.610;2023-05-20T02:24:33;98800.66;;;13.42;100.00
9307;BME280;4691;47.612;7.610;2023-05-20T02:27:06;98796.84;;;13.44;100.00
9307;BME280;4691;47.612;7.610;2023-05-20T02:29:32;98794.59;;;13.49;100.00
9307;BME280;4691;47.612;7.610;2023-05-20T02:31:57;98795.97;;;13.54;100.00
9307;BME280;4691;47.612;7.610;2023-05-20T02:34:26;98789.94;;;13.52;100.00
9307;BME280;4691;47.612;7.610;2023-05-20T02:37:09;98793.59;;;13.50;100.00
9307;BME280;4691;47.612;7.610;2023-05-20T02:39:35;98780.44;;;13.47;100.00
9307;BME280;4691;47.612;7.610;2023-05-20T02:42:03;98790.19;;;13.48;100.00
9307;BME280;4691;47.612;7.610;2023-05-20T02:44:31;98789.06;;;13.51;100.00
9307;BME280;4691;47.612;7.610;2023-05-20T02:46:57;98785.13;;;13.55;100.00
9307;BME280;4691;47.612;7.610;2023-05-20T02:49:22;98780.88;;;13.53;100.00
9307;BME280;4691;47.612;7.610;2023-05-20T02:51:51;98769.56;;;13.49;100.00
9307;BME280;4691;47.612;7.610;2023-05-20T02:54:16;98767.28;;;13.44;100.00
9307;BME280;4691;47.612;7.610;2023-05-20T02:56:41;98755.97;;;13.50;100.00
9307;BME280;4691;47.612;7.610;2023-05-20T02:59:07;98766.72;;;13.50;100.00
9307;BME280;4691;47.612;7.610;2023-05-20T03:01:35;98762.88;;;13.43;100.00
9307;BME280;4691;47.612;7.610;2023-05-20T03:04:01;98760.06;;;13.35;100.00
9307;BME280;4691;47.612;7.610;2023-05-20T03:06:36;98759.94;;;13.37;100.00
9307;BME280;4691;47.612;7.610;2023-05-20T03:09:08;98764.16;;;13.39;100.00
9307;BME280;4691;47.612;7.610;2023-05-20T03:11:37;98768.13;;;13.45;100.00
9307;BME280;4691;47.612;7.610;2023-05-20T03:14:02;98772.38;;;13.47;100.00
9307;BME280;4691;47.612;7.610;2023-05-20T03:16:33;98772.06;;;13.41;100.00
9307;BME280;4691;47.612;7.610;2023-05-20T03:19:07;98777.72;;;13.38;100.00
9307;BME280;4691;47.612;7.610;2023-05-20T03:21:55;98773.91;;;13.40;100.00
9307;BME280;4691;47.612;7.610;2023-05-20T03:24:22;98768.13;;;13.35;100.00
9307;BME280;4691;47.612;7.610;2023-05-20T03:26:54;98768.81;;;13.37;100.00
9307;BME280;4691;47.612;7.610;2023-05-20T03:29:23;98761.91;;;13.35;100.00
9307;BME280;4691;47.612;7.610;2023-05-20T03:31:48;98771.91;;;13.33;100.00
9307;BME280;4691;47.612;7.610;2023-05-20T03:34:19;98765.44;;;13.35;100.00
9307;BME280;4691;47.612;7.610;2023-05-20T03:36:53;98770.06;;;13.33;100.00
9307;BME280;4691;47.612;7.610;2023-05-20T03:39:24;98771.78;;;13.34;100.00
9307;BME280;4691;47.612;7.610;2023-05-20T03:41:50;98773.47;;;13.35;100.00
9307;BME280;4691;47.612;7.610;2023-05-20T03:44:18;98771.06;;;13.32;100.00
9307;BME280;4691;47.612;7.610;2023-05-20T03:47:04;98765.16;;;13.28;100.00
9307;BME280;4691;47.612;7.610;2023-05-20T03:49:30;98763.31;;;13.29;100.00
9307;BME280;4691;47.612;7.610;2023-05-20T03:51:55;98763.03;;;13.32;100.00
9307;BME280;4691;47.612;7.610;2023-05-20T03:54:24;98764.47;;;13.36;100.00
9307;BME280;4691;47.612;7.610;2023-05-20T03:56:51;98762.47;;;13.38;100.00
9307;BME280;4691;47.612;7.610;2023-05-20T03:59:17;98764.47;;;13.36;100.00
9307;BME280;4691;47.612;7.610;2023-05-20T04:01:50;98758.78;;;13.29;100.00
9307;BME280;4691;47.612;7.610;2023-05-20T04:04:16;98763.31;;;13.29;100.00
9307;BME280;4691;47.612;7.610;2023-05-20T04:06:49;98765.00;;;13.30;100.00
9307;BME280;4691;47.612;7.610;2023-05-20T04:09:26;98766.00;;;13.29;100.00
9307;BME280;4691;47.612;7.610;2023-05-20T04:11:51;98764.72;;;13.33;100.00
9307;BME280;4691;47.612;7.610;2023-05-20T04:14:17;98762.59;;;13.27;100.00
9307;BME280;4691;47.612;7.610;2023-05-20T04:16:51;98766.00;;;13.29;100.00
9307;BME280;4691;47.612;7.610;2023-05-20T04:19:19;98757.38;;;13.35;100.00
9307;BME280;4691;47.612;7.610;2023-05-20T04:21:57;98751.88;;;13.37;100.00
9307;BME280;4691;47.612;7.610;2023-05-20T04:24:31;98759.78;;;13.38;100.00
9307;BME280;4691;47.612;7.610;2023-05-20T04:27:05;98768.84;;;13.47;100.00
9307;BME280;4691;47.612;7.610;2023-05-20T04:29:30;98766.00;;;13.48;100.00
9307;BME280;4691;47.612;7.610;2023-05-20T04:31:58;98768.44;;;13.52;100.00
9307;BME280;4691;47.612;7.610;2023-05-20T04:34:32;98767.44;;;13.53;100.00
9307;BME280;4691;47.612;7.610;2023-05-20T04:36:59;98771.69;;;13.55;100.00
9307;BME280;4691;47.612;7.610;2023-05-20T04:39:31;98772.25;;;13.59;100.00
9307;BME280;4691;47.612;7.610;2023-05-20T04:41:57;98766.44;;;13.54;100.00
9307;BME280;4691;47.612;7.610;2023-05-20T04:44:27;98766.72;;;13.50;100.00
9307;BME280;4691;47.612;7.610;2023-05-20T04:46:54;98772.38;;;13.47;100.00
9307;BME280;4691;47.612;7.610;2023-05-20T04:49:23;98770.13;;;13.53;100.00
9307;BME280;4691;47.612;7.610;2023-05-20T04:51:50;98757.94;;;13.48;100.00
9307;BME280;4691;47.612;7.610;2023-05-20T04:54:16;98762.78;;;13.55;100.00
9307;BME280;4691;47.612;7.610;2023-05-20T04:56:48;98752.31;;;13.61;100.00
9307;BME280;4691;47.612;7.610;2023-05-20T04:59:23;98752.31;;;13.61;100.00
9307;BME280;4691;47.612;7.610;2023-05-20T05:01:52;98746.94;;;13.61;100.00
9307;BME280;4691;47.612;7.610;2023-05-20T05:04:37;98753.44;;;13.68;100.00
9307;BME280;4691;47.612;7.610;2023-05-20T05:09:50;98748.06;;;13.78;100.00
9307;BME280;4691;47.612;7.610;2023-05-20T05:12:15;98754.88;;;13.82;100.00
9307;BME280;4691;47.612;7.610;2023-05-20T05:14:46;98743.84;;;13.85;100.00
9307;BME280;4691;47.612;7.610;2023-05-20T05:17:15;98746.25;;;13.88;100.00
9307;BME280;4691;47.612;7.610;2023-05-20T05:19:40;98730.09;;;13.88;100.00
9307;BME280;4691;47.612;7.610;2023-05-20T05:22:21;98729.56;;;13.85;100.00
9307;BME280;4691;47.612;7.610;2023-05-20T05:24:46;98731.66;;;13.81;100.00
9307;BME280;4691;47.612;7.610;2023-05-20T05:27:15;98730.53;;;13.93;100.00
9307;BME280;4691;47.612;7.610;2023-05-20T05:29:43;98742.84;;;13.86;100.00
9307;BME280;4691;47.612;7.610;2023-05-20T05:32:16;98733.22;;;13.74;100.00
9307;BME280;4691;47.612;7.610;2023-05-20T05:34:52;98736.75;;;13.84;100.00
9307;BME280;4691;47.612;7.610;2023-05-20T05:37:20;98736.50;;;13.87;100.00
9307;BME280;4691;47.612;7.610;2023-05-20T05:39:46;98728.13;;;13.90;100.00
9307;BME280;4691;47.612;7.610;2023-05-20T05:42:14;98727.13;;;13.91;100.00
9307;BME280;4691;47.612;7.610;2023-05-20T05:44:45;98731.25;;;14.05;100.00
9307;BME280;4691;47.612;7.610;2023-05-20T05:47:11;98736.75;;;14.04;100.00
9307;BME280;4691;47.612;7.610;2023-05-20T05:49:37;98745.22;;;14.09;100.00
9307;BME280;4691;47.612;7.610;2023-05-20T05:52:08;98751.56;;;14.18;100.00
9307;BME280;4691;47.612;7.610;2023-05-20T05:54:33;98735.13;;;14.30;100.00
9307;BME280;4691;47.612;7.610;2023-05-20T05:56:59;98740.78;;;14.37;100.00
9307;BME280;4691;47.612;7.610;2023-05-20T05:59:24;98743.78;;;14.34;100.00
9307;BME280;4691;47.612;7.610;2023-05-20T06:01:52;98743.47;;;14.37;100.00
9307;BME280;4691;47.612;7.610;2023-05-20T06:04:20;98740.91;;;14.45;100.00
9307;BME280;4691;47.612;7.610;2023-05-20T06:06:51;98748.13;;;14.45;100.00
9307;BME280;4691;47.612;7.610;2023-05-20T06:09:20;98755.06;;;14.57;100.00
9307;BME280;4691;47.612;7.610;2023-05-20T06:11:45;98742.16;;;14.51;100.00
9307;BME280;4691;47.612;7.610;2023-05-20T06:14:17;98743.16;;;14.50;100.00
9307;BME280;4691;47.612;7.610;2023-05-20T06:16:42;98739.91;;;14.56;100.00
9307;BME280;4691;47.612;7.610;2023-05-20T06:19:15;98739.59;;;14.59;100.00
9307;BME280;4691;47.612;7.610;2023-05-20T06:21:43;98739.47;;;14.51;100.00
9307;BME280;4691;47.612;7.610;2023-05-20T06:24:15;98734.38;;;14.57;100.00
9307;BME280;4691;47.612;7.610;2023-05-20T06:26:40;98731.81;;;14.66;100.00
9307;BME280;4691;47.612;7.610;2023-05-20T06:29:08;98734.63;;;14.64;100.00
9307;BME280;4691;47.612;7.610;2023-05-20T06:32:09;98731.47;;;14.78;100.00
9307;BME280;4691;47.612;7.610;2023-05-20T06:34:49;98724.13;;;14.71;100.00
9307;BME280;4691;47.612;7.610;2023-05-20T06:37:24;98717.22;;;14.96;100.00
9307;BME280;4691;47.612;7.610;2023-05-20T06:39:58;98711.94;;;15.04;100.00
9307;BME280;4691;47.612;7.610;2023-05-20T06:42:26;98710.44;;;14.92;100.00
9307;BME280;4691;47.612;7.610;2023-05-20T06:44:57;98708.66;;;14.83;100.00
9307;BME280;4691;47.612;7.610;2023-05-20T06:47:25;98706.22;;;14.79;100.00
9307;BME280;4691;47.612;7.610;2023-05-20T06:50:01;98709.72;;;14.90;100.00
9307;BME280;4691;47.612;7.610;2023-05-20T06:52:29;98723.84;;;15.01;100.00
9307;BME280;4691;47.612;7.610;2023-05-20T06:55:08;98721.59;;;15.24;100.00
9307;BME280;4691;47.612;7.610;2023-05-20T06:57:39;98718.88;;;15.24;100.00
9307;BME280;4691;47.612;7.610;2023-05-20T07:00:16;98717.63;;;15.46;100.00
9307;BME280;4691;47.612;7.610;2023-05-20T07:02:44;98717.31;;;15.67;100.00
9307;BME280;4691;47.612;7.610;2023-05-20T07:05:22;98706.69;;;15.84;100.00
9307;BME280;4691;47.612;7.610;2023-05-20T07:07:48;98701.72;;;15.97;100.00
9307;BME280;4691;47.612;7.610;2023-05-20T07:10:14;98692.75;;;16.15;100.00
9307;BME280;4691;47.612;7.610;2023-05-20T07:12:48;98692.25;;;16.11;100.00
9307;BME280;4691;47.612;7.610;2023-05-20T07:15:16;98694.66;;;16.22;100.00
9307;BME280;4691;47.612;7.610;2023-05-20T07:17:48;98697.88;;;16.26;100.00
9307;BME280;4691;47.612;7.610;2023-05-20T07:20:13;98687.16;;;16.34;100.00
9307;BME280;4691;47.612;7.610;2023-05-20T07:22:42;98678.69;;;16.29;100.00
9307;BME280;4691;47.612;7.610;2023-05-20T07:25:08;98688.75;;;16.19;100.00
9307;BME280;4691;47.612;7.610;2023-05-20T07:27:36;98682.19;;;16.21;100.00
9307;BME280;4691;47.612;7.610;2023-05-20T07:30:02;98681.03;;;16.24;100.00
9307;BME280;4691;47.612;7.610;2023-05-20T07:32:31;98683.00;;;16.14;100.00
9307;BME280;4691;47.612;7.610;2023-05-20T07:35:02;98682.91;;;16.05;100.00
9307;BME280;4691;47.612;7.610;2023-05-20T07:37:28;98692.34;;;16.01;100.00
9307;BME280;4691;47.612;7.610;2023-05-20T07:40:00;98693.31;;;16.00;100.00
9307;BME280;4691;47.612;7.610;2023-05-20T07:42:34;98688.00;;;16.08;100.00
9307;BME280;4691;47.612;7.610;2023-05-20T07:45:09;98684.09;;;15.85;100.00
9307;BME280;4691;47.612;7.610;2023-05-20T07:47:43;98685.94;;;15.84;100.00
9307;BME280;4691;47.612;7.610;2023-05-20T07:50:17;98689.88;;;15.90;100.00
9307;BME280;4691;47.612;7.610;2023-05-20T07:52:43;98690.88;;;15.89;100.00
9307;BME280;4691;47.612;7.610;2023-05-20T07:55:09;98688.72;;;15.75;100.00
9307;BME280;4691;47.612;7.610;2023-05-20T07:57:34;98694.03;;;15.66;100.00
9307;BME280;4691;47.612;7.610;2023-05-20T08:00:08;98698.06;;;15.62;100.00
9307;BME280;4691;47.612;7.610;2023-05-20T08:02:51;98693.56;;;15.53;100.00
9307;BME280;4691;47.612;7.610;2023-05-20T08:05:19;98696.13;;;15.55;100.00
9307;BME280;4691;47.612;7.610;2023-05-20T08:07:49;98697.59;;;15.49;100.00
9307;BME280;4691;47.612;7.610;2023-05-20T08:10:33;98701.72;;;15.61;100.00
9307;BME280;4691;47.612;7.610;2023-05-20T08:13:24;98695.13;;;15.74;100.00
9307;BME280;4691;47.612;7.610;2023-05-20T08:15:57;98694.50;;;15.80;100.00
9307;BME280;4691;47.612;7.610;2023-05-20T08:18:31;98697.06;;;15.81;100.00
9307;BME280;4691;47.612;7.610;2023-05-20T08:21:08;98693.13;;;15.76;100.00
9307;BME280;4691;47.612;7.610;2023-05-20T08:23:43;98696.13;;;15.91;100.00
9307;BME280;4691;47.612;7.610;2023-05-20T08:26:09;98690.28;;;16.21;100.00
9307;BME280;4691;47.612;7.610;2023-05-20T08:28:38;98692.06;;;16.13;100.00
9307;BME280;4691;47.612;7.610;2023-05-20T08:34:09;98682.06;;;16.31;100.00
9307;BME280;4691;47.612;7.610;2023-05-20T08:40:13;98669.28;;;17.18;100.00
9307;BME280;4691;47.612;7.610;2023-05-20T08:42:49;98658.38;;;17.60;100.00
9307;BME280;4691;47.612;7.610;2023-05-20T08:45:19;98662.63;;;17.63;100.00
9307;BME280;4691;47.612;7.610;2023-05-20T08:50:45;98656.56;;;17.94;100.00
9307;BME280;4691;47.612;7.610;2023-05-20T08:53:21;98664.50;;;18.03;100.00
9307;BME280;4691;47.612;7.610;2023-05-20T08:56:00;98659.56;;;18.07;100.00
9307;BME280;4691;47.612;7.610;2023-05-20T08:58:34;98651.78;;;18.12;100.00
9307;BME280;4691;47.612;7.610;2023-05-20T09:01:02;98655.69;;;17.85;100.00
9307;BME280;4691;47.612;7.610;2023-05-20T09:03:51;98650.09;;;17.78;100.00
9307;BME280;4691;47.612;7.610;2023-05-20T09:06:18;98652.81;;;17.70;100.00
9307;BME280;4691;47.612;7.610;2023-05-20T09:08:50;98652.00;;;17.86;100.00
9307;BME280;4691;47.612;7.610;2023-05-20T09:11:16;98640.63;;;18.15;100.00
9307;BME280;4691;47.612;7.610;2023-05-20T09:13:45;98646.06;;;17.82;100.00
9307;BME280;4691;47.612;7.610;2023-05-20T09:16:39;98641.66;;;17.73;100.00
9307;BME280;4691;47.612;7.610;2023-05-20T09:19:14;98636.97;;;17.83;100.00
9307;BME280;4691;47.612;7.610;2023-05-20T09:21:51;98640.81;;;18.14;100.00
9307;BME280;4691;47.612;7.610;2023-05-20T09:24:24;98628.69;;;18.49;100.00
9307;BME280;4691;47.612;7.610;2023-05-20T09:26:51;98615.19;;;18.88;100.00
9307;BME280;4691;47.612;7.610;2023-05-20T09:29:37;98627.59;;;19.29;100.00
9307;BME280;4691;47.612;7.610;2023-05-20T09:32:19;98620.16;;;19.31;100.00
9307;BME280;4691;47.612;7.610;2023-05-20T09:37:49;98609.56;;;20.20;100.00
9307;BME280;4691;47.612;7.610;2023-05-20T09:40:28;98612.28;;;20.64;100.00
9307;BME280;4691;47.612;7.610;2023-05-20T09:43:09;98581.91;;;21.12;100.00
9307;BME280;4691;47.612;7.610;2023-05-20T09:46:11;98593.69;;;20.83;100.00
9307;BME280;4691;47.612;7.610;2023-05-20T09:48:50;98601.28;;;20.87;100.00
9307;BME280;4691;47.612;7.610;2023-05-20T09:51:21;98578.84;;;21.58;100.00
9307;BME280;4691;47.612;7.610;2023-05-20T09:53:57;98579.66;;;22.43;100.00
9307;BME280;4691;47.612;7.610;2023-05-20T09:56:25;98581.44;;;21.94;100.00
9307;BME280;4691;47.612;7.610;2023-05-20T09:59:14;98578.47;;;21.96;100.00
9307;BME280;4691;47.612;7.610;2023-05-20T10:01:45;98565.75;;;22.31;100.00
9307;BME280;4691;47.612;7.610;2023-05-20T10:04:15;98568.59;;;22.99;100.00
9307;BME280;4691;47.612;7.610;2023-05-20T10:19:38;98569.09;;;21.70;100.00
9307;BME280;4691;47.612;7.610;2023-05-20T10:22:35;98579.34;;;21.68;100.00
9307;BME280;4691;47.612;7.610;2023-05-20T10:25:22;98568.22;;;21.63;100.00
9307;BME280;4691;47.612;7.610;2023-05-20T10:31:01;98547.84;;;22.15;100.00
9307;BME280;4691;47.612;7.610;2023-05-20T10:33:52;98539.25;;;22.18;100.00
9307;BME280;4691;47.612;7.610;2023-05-20T10:40:01;98532.53;;;22.97;100.00
9307;BME280;4691;47.612;7.610;2023-05-20T10:42:38;98564.03;;;23.20;100.00
9307;BME280;4691;47.612;7.610;2023-05-20T10:45:23;98520.41;;;23.46;100.00
9307;BME280;4691;47.612;7.610;2023-05-20T10:48:35;98533.59;;;22.48;100.00
9307;BME280;4691;47.612;7.610;2023-05-20T10:51:17;98538.94;;;22.35;100.00
9307;BME280;4691;47.612;7.610;2023-05-20T10:54:08;98540.13;;;21.91;100.00
9307;BME280;4691;47.612;7.610;2023-05-20T10:56:33;98543.66;;;21.85;100.00
9307;BME280;4691;47.612;7.610;2023-05-20T10:59:07;98555.78;;;22.10;100.00
9307;BME280;4691;47.612;7.610;2023-05-20T11:01:49;98534.44;;;22.49;100.00
9307;BME280;4691;47.612;7.610;2023-05-20T11:04:30;98542.13;;;22.93;100.00
9307;BME280;4691;47.612;7.610;2023-05-20T11:10:20;98497.34;;;24.54;100.00
9307;BME280;4691;47.612;7.610;2023-05-20T11:16:06;98475.59;;;24.14;100.00
9307;BME280;4691;47.612;7.610;2023-05-20T11:18:31;98514.00;;;22.79;100.00
9307;BME280;4691;47.612;7.610;2023-05-20T11:21:08;98521.25;;;23.34;100.00
9307;BME280;4691;47.612;7.610;2023-05-20T11:23:42;98496.91;;;23.59;100.00
9307;BME280;4691;47.612;7.610;2023-05-20T11:26:19;98461.91;;;25.04;100.00
9307;BME280;4691;47.612;7.610;2023-05-20T11:28:45;98441.97;;;24.97;100.00
9307;BME280;4691;47.612;7.610;2023-05-20T11:31:14;98483.66;;;23.69;100.00
9307;BME280;4691;47.612;7.610;2023-05-20T11:33:45;98486.81;;;23.26;100.00
9307;BME280;4691;47.612;7.610;2023-05-20T11:36:17;98500.66;;;23.04;100.00
9307;BME280;4691;47.612;7.610;2023-05-20T11:38:44;98494.34;;;23.04;100.00
9307;BME280;4691;47.612;7.610;2023-05-20T11:41:11;98509.34;;;22.67;100.00
9307;BME280;4691;47.612;7.610;2023-05-20T11:43:36;98524.41;;;21.37;100.00
9307;BME280;4691;47.612;7.610;2023-05-20T11:46:04;98524.19;;;21.53;100.00
9307;BME280;4691;47.612;7.610;2023-05-20T11:48:29;98516.03;;;21.88;100.00
9307;BME280;4691;47.612;7.610;2023-05-20T11:50:58;98493.84;;;22.80;100.00
9307;BME280;4691;47.612;7.610;2023-05-20T11:53:33;98465.59;;;23.68;100.00
9307;BME280;4691;47.612;7.610;2023-05-20T11:55:59;98425.22;;;24.87;100.00
9307;BME280;4691;47.612;7.610;2023-05-20T11:58:34;98415.72;;;25.14;100.00
9307;BME280;4691;47.612;7.610;2023-05-20T12:01:06;98444.31;;;24.10;100.00
9307;BME280;4691;47.612;7.610;2023-05-20T12:03:34;98445.28;;;24.22;100.00
9307;BME280;4691;47.612;7.610;2023-05-20T12:06:05;98464.56;;;23.76;100.00
9307;BME280;4691;47.612;7.610;2023-05-20T12:08:33;98462.47;;;23.64;100.00
9307;BME280;4691;47.612;7.610;2023-05-20T12:10:59;98453.66;;;23.56;100.00
9307;BME280;4691;47.612;7.610;2023-05-20T12:13:24;98472.13;;;23.14;100.00
9307;BME280;4691;47.612;7.610;2023-05-20T12:15:55;98468.75;;;23.12;100.00
9307;BME280;4691;47.612;7.610;2023-05-20T12:18:34;98459.13;;;23.49;100.00
9307;BME280;4691;47.612;7.610;2023-05-20T12:21:03;98461.66;;;23.31;100.00
9307;BME280;4691;47.612;7.610;2023-05-20T12:23:59;98453.88;;;23.21;100.00
9307;BME280;4691;47.612;7.610;2023-05-20T12:26:38;98431.22;;;24.25;100.00
9307;BME280;4691;47.612;7.610;2023-05-20T12:29:12;98416.72;;;24.25;100.00
9307;BME280;4691;47.612;7.610;2023-05-20T12:31:43;98417.72;;;23.85;100.00
9307;BME280;4691;47.612;7.610;2023-05-20T12:34:14;98443.78;;;23.55;100.00
9307;BME280;4691;47.612;7.610;2023-05-20T12:36:42;98458.56;;;24.19;100.00
9307;BME280;4691;47.612;7.610;2023-05-20T12:39:13;98422.88;;;24.13;100.00
9307;BME280;4691;47.612;7.610;2023-05-20T12:41:44;98417.06;;;24.42;100.00
9307;BME280;4691;47.612;7.610;2023-05-20T12:44:09;98409.00;;;25.17;100.00
9307;BME280;4691;47.612;7.610;2023-05-20T12:49:22;98372.28;;;26.54;100.00
9307;BME280;4691;47.612;7.610;2023-05-20T12:51:53;98366.94;;;26.59;100.00
9307;BME280;4691;47.612;7.610;2023-05-20T12:54:19;98370.69;;;25.60;100.00
9307;BME280;4691;47.612;7.610;2023-05-20T12:56:45;98389.81;;;24.67;100.00
9307;BME280;4691;47.612;7.610;2023-05-20T12:59:12;98402.94;;;24.51;100.00
9307;BME280;4691;47.612;7.610;2023-05-20T13:01:40;98401.41;;;24.17;100.00
9307;BME280;4691;47.612;7.610;2023-05-20T13:04:11;98403.41;;;24.48;100.00
9307;BME280;4691;47.612;7.610;2023-05-20T13:06:59;98414.97;;;23.92;100.00
9307;BME280;4691;47.612;7.610;2023-05-20T13:09:37;98416.63;;;24.00;100.00
9307;BME280;4691;47.612;7.610;2023-05-20T13:12:02;98397.72;;;23.91;100.00
9307;BME280;4691;47.612;7.610;2023-05-20T13:14:31;98412.06;;;23.87;100.00
9307;BME280;4691;47.612;7.610;2023-05-20T13:16:58;98388.44;;;24.06;100.00
9307;BME280;4691;47.612;7.610;2023-05-20T13:19:27;98390.41;;;23.92;100.00
9307;BME280;4691;47.612;7.610;2023-05-20T13:21:53;98411.94;;;24.07;100.00
9307;BME280;4691;47.612;7.610;2023-05-20T13:24:26;98385.72;;;24.06;100.00
9307;BME280;4691;47.612;7.610;2023-05-20T13:26:54;98391.38;;;24.04;100.00
9307;BME280;4691;47.612;7.610;2023-05-20T13:29:26;98401.03;;;24.07;100.00
9307;BME280;4691;47.612;7.610;2023-05-20T13:31:52;98416.38;;;24.08;100.00
9307;BME280;4691;47.612;7.610;2023-05-20T13:34:25;98391.16;;;24.12;100.00
9307;BME280;4691;47.612;7.610;2023-05-20T13:36:57;98409.03;;;24.08;100.00
9307;BME280;4691;47.612;7.610;2023-05-20T13:39:28;98392.53;;;23.70;100.00
9307;BME280;4691;47.612;7.610;2023-05-20T13:41:57;98404.97;;;23.46;100.00
9307;BME280;4691;47.612;7.610;2023-05-20T13:44:25;98402.66;;;23.50;100.00
9307;BME280;4691;47.612;7.610;2023-05-20T13:46:56;98397.00;;;23.44;100.00
9307;BME280;4691;47.612;7.610;2023-05-20T13:49:46;98400.81;;;22.97;100.00
9307;BME280;4691;47.612;7.610;2023-05-20T13:52:12;98408.31;;;22.61;100.00
9307;BME280;4691;47.612;7.610;2023-05-20T13:54:43;98422.72;;;22.01;100.00
9307;BME280;4691;47.612;7.610;2023-05-20T13:57:10;98430.47;;;21.97;100.00
9307;BME280;4691;47.612;7.610;2023-05-20T13:59:36;98424.81;;;21.99;100.00
9307;BME280;4691;47.612;7.610;2023-05-20T14:02:01;98427.84;;;21.75;100.00
9307;BME280;4691;47.612;7.610;2023-05-20T14:04:27;98439.47;;;21.56;100.00
9307;BME280;4691;47.612;7.610;2023-05-20T14:07:00;98428.47;;;21.78;100.00
9307;BME280;4691;47.612;7.610;2023-05-20T14:09:28;98423.84;;;21.71;100.00
9307;BME280;4691;47.612;7.610;2023-05-20T14:11:53;98415.56;;;21.86;100.00
9307;BME280;4691;47.612;7.610;2023-05-20T14:14:26;98412.13;;;22.12;100.00
9307;BME280;4691;47.612;7.610;2023-05-20T14:16:54;98422.41;;;22.17;100.00